VLSK

Savannakhet Airport

Airport
ICAO code
VLSK
IATA Code
ZVK
Summary
ICAO Region
APAC
ICAO Territory
Location

Savannakhet, Khoueng Savannakhet

Serving
Savannakhet
Elevation
509 ft
Coordinates
16° 33' 24" N , 104° 45' 34" E
KCC
Metar
VLSK 260000Z 09002KT 4000 BR SCT040 SCT100 19/18 Q1015 NOSIG

Savannakhet Airport is an airport near Savannakhet, Laos.

Climatology

Tropical savannah climate (Köppen climate classification Aw)

Airport map

Aerial View

SKYbrary Partners:

Safety knowledge contributed by: